createdAt,value
2023-06-22T00:00:39.574Z,23.50
2023-06-22T00:01:39.848Z,23.47
2023-06-22T00:02:39.977Z,23.48
2023-06-22T00:03:40.157Z,23.46
2023-06-22T00:04:40.279Z,23.44
2023-06-22T00:05:40.447Z,23.43
2023-06-22T00:06:40.644Z,23.41
2023-06-22T00:07:40.838Z,23.41
2023-06-22T00:08:40.987Z,23.43
2023-06-22T00:09:41.157Z,23.41
2023-06-22T00:10:41.317Z,23.41
2023-06-22T00:11:41.499Z,23.41
2023-06-22T00:12:41.684Z,23.41
2023-06-22T00:13:41.860Z,23.43
2023-06-22T00:14:42.041Z,23.44
2023-06-22T00:15:42.223Z,23.43
2023-06-22T00:16:42.419Z,23.40
2023-06-22T00:17:42.666Z,23.40
2023-06-22T00:18:42.770Z,23.41
2023-06-22T00:19:42.941Z,23.37
2023-06-22T00:20:43.147Z,23.36
2023-06-22T00:21:43.310Z,23.37
2023-06-22T00:22:43.496Z,23.37
2023-06-22T00:23:43.664Z,23.37
2023-06-22T00:24:43.847Z,23.37
2023-06-22T00:25:44.017Z,23.39
2023-06-22T00:26:44.205Z,23.40
2023-06-22T00:27:44.369Z,23.40
2023-06-22T00:28:44.569Z,23.41
2023-06-22T00:29:44.743Z,23.40
2023-06-22T00:30:44.918Z,23.40
2023-06-22T00:31:45.160Z,23.40
2023-06-22T00:32:45.427Z,23.40
2023-06-22T00:33:45.438Z,23.39
2023-06-22T00:34:45.602Z,23.41
2023-06-22T00:35:45.801Z,23.40
2023-06-22T00:36:45.989Z,23.40
2023-06-22T00:37:46.140Z,23.40
2023-06-22T00:38:46.311Z,23.37
2023-06-22T00:39:46.562Z,23.37
2023-06-22T00:40:46.693Z,23.40
2023-06-22T00:41:46.860Z,23.39
2023-06-22T00:42:47.009Z,23.39
2023-06-22T00:43:47.175Z,23.40
2023-06-22T00:44:47.351Z,23.40
2023-06-22T00:45:47.553Z,23.41
2023-06-22T00:46:47.721Z,23.40
2023-06-22T00:47:47.904Z,23.39
2023-06-22T00:48:48.079Z,23.39
2023-06-22T00:49:48.240Z,23.37
2023-06-22T00:50:48.441Z,23.36
2023-06-22T00:51:48.585Z,23.34
2023-06-22T00:52:48.757Z,23.36
2023-06-22T00:53:48.926Z,23.36
2023-06-22T00:54:49.115Z,23.34
2023-06-22T00:55:49.293Z,23.34
2023-06-22T00:56:49.464Z,23.36
2023-06-22T00:57:49.650Z,23.34
2023-06-22T00:58:49.825Z,23.36
2023-06-22T00:59:50.020Z,23.36
2023-06-22T01:00:50.282Z,23.34
2023-06-22T01:01:50.319Z,23.32
2023-06-22T01:02:50.547Z,23.32
2023-06-22T01:03:50.764Z,23.31
2023-06-22T01:04:50.845Z,23.31
2023-06-22T01:05:51.026Z,23.28
2023-06-22T01:06:51.192Z,23.28
2023-06-22T01:07:51.364Z,23.27
2023-06-22T01:08:51.557Z,23.27
2023-06-22T01:09:51.719Z,23.28
2023-06-22T01:10:51.899Z,23.27
2023-06-22T01:11:52.069Z,23.24
2023-06-22T01:12:52.260Z,23.25
2023-06-22T01:13:52.467Z,23.24
2023-06-22T01:14:52.599Z,23.23
2023-06-22T01:15:52.776Z,23.23
2023-06-22T01:16:52.958Z,23.23
2023-06-22T01:17:53.161Z,23.21
2023-06-22T01:18:53.358Z,23.20
2023-06-22T01:19:53.505Z,23.20
2023-06-22T01:20:53.657Z,23.18
2023-06-22T01:21:53.842Z,23.15
2023-06-22T01:22:54.020Z,23.13
2023-06-22T01:23:54.192Z,23.10
2023-06-22T01:24:54.373Z,23.09
2023-06-22T01:25:54.533Z,23.08
2023-06-22T01:26:54.709Z,23.06
2023-06-22T01:27:54.959Z,23.03
2023-06-22T01:28:55.074Z,23.00
2023-06-22T01:29:55.251Z,22.99
2023-06-22T01:30:55.440Z,23.00
2023-06-22T01:31:55.670Z,22.99
2023-06-22T01:32:55.798Z,22.99
2023-06-22T01:33:55.948Z,22.98
2023-06-22T01:34:56.120Z,22.98
2023-06-22T01:35:56.298Z,22.96
2023-06-22T01:36:56.479Z,22.94
2023-06-22T01:37:56.638Z,22.91
2023-06-22T01:38:56.790Z,22.90
2023-06-22T01:39:57.071Z,22.91
2023-06-22T01:40:57.162Z,22.90
2023-06-22T01:41:57.316Z,22.90
2023-06-22T01:42:57.519Z,22.90
2023-06-22T01:43:57.646Z,22.90
2023-06-22T01:44:57.842Z,22.90
2023-06-22T01:45:57.989Z,22.90
2023-06-22T01:46:58.297Z,22.90
2023-06-22T01:47:58.394Z,22.90
2023-06-22T01:48:58.518Z,22.85
2023-06-22T01:49:58.699Z,22.85
2023-06-22T01:50:58.902Z,22.87
2023-06-22T01:51:59.067Z,22.87
2023-06-22T01:52:59.241Z,22.88
2023-06-22T01:53:59.414Z,22.87
2023-06-22T01:54:59.583Z,22.91
2023-06-22T01:55:59.766Z,22.90
2023-06-22T01:56:59.909Z,22.91
2023-06-22T01:58:00.096Z,22.90
2023-06-22T01:59:00.278Z,22.93
2023-06-22T02:00:00.445Z,22.91
2023-06-22T02:01:00.645Z,22.91
2023-06-22T02:02:00.890Z,22.88
2023-06-22T02:03:01.082Z,22.90
2023-06-22T02:04:01.318Z,22.90
2023-06-22T02:05:01.340Z,22.90
2023-06-22T02:06:01.553Z,22.90
2023-06-22T02:07:01.687Z,22.91
2023-06-22T02:08:01.890Z,22.90
2023-06-22T02:09:02.028Z,22.91
2023-06-22T02:10:02.195Z,22.91
2023-06-22T02:11:02.394Z,22.93
2023-06-22T02:12:02.573Z,22.91
2023-06-22T02:13:02.762Z,22.93
2023-06-22T02:14:02.898Z,22.94
2023-06-22T02:15:03.135Z,22.94
2023-06-22T02:16:03.259Z,22.96
2023-06-22T02:17:03.442Z,22.94
2023-06-22T02:18:03.689Z,22.93
2023-06-22T02:19:03.821Z,22.98
2023-06-22T02:20:03.969Z,23.00
2023-06-22T02:21:04.145Z,23.02
2023-06-22T02:22:04.317Z,23.02
2023-06-22T02:23:04.505Z,23.03
2023-06-22T02:24:04.720Z,23.06
2023-06-22T02:25:04.836Z,23.08
2023-06-22T02:26:04.992Z,23.10
2023-06-22T02:27:05.169Z,23.10
2023-06-22T02:28:05.339Z,23.12
2023-06-22T02:29:05.505Z,23.15
2023-06-22T02:30:05.667Z,23.18
2023-06-22T02:31:05.860Z,23.21
2023-06-22T02:32:05.992Z,23.21
2023-06-22T02:33:06.301Z,23.23
2023-06-22T02:34:06.368Z,23.24
2023-06-22T02:35:06.528Z,23.24
2023-06-22T02:36:06.673Z,23.27
2023-06-22T02:37:06.873Z,23.31
2023-06-22T02:38:07.008Z,23.31
2023-06-22T02:39:07.172Z,23.31
2023-06-22T02:40:07.335Z,23.32
2023-06-22T02:41:07.593Z,23.32
2023-06-22T02:42:07.728Z,23.36
2023-06-22T02:43:07.932Z,23.34
2023-06-22T02:44:08.094Z,23.36
2023-06-22T02:45:08.268Z,23.37
2023-06-22T02:46:08.406Z,23.37
2023-06-22T02:47:08.607Z,23.37
2023-06-22T02:48:08.826Z,23.37
2023-06-22T02:49:08.987Z,23.37
2023-06-22T02:50:09.135Z,23.39
2023-06-22T02:51:09.324Z,23.40
2023-06-22T02:52:09.485Z,23.39
2023-06-22T02:53:09.654Z,23.36
2023-06-22T02:54:09.824Z,23.40
2023-06-22T02:55:10.026Z,23.39
2023-06-22T02:56:10.198Z,23.39
2023-06-22T02:57:10.373Z,23.41
2023-06-22T02:58:10.515Z,23.44
2023-06-22T02:59:10.691Z,23.44
2023-06-22T03:00:10.874Z,23.47
2023-06-22T03:01:11.181Z,23.48
2023-06-22T03:02:11.221Z,23.50
2023-06-22T03:03:11.501Z,23.51
2023-06-22T03:04:11.603Z,23.51
2023-06-22T03:05:11.787Z,23.55
2023-06-22T03:06:11.955Z,23.56
2023-06-22T03:07:12.174Z,23.56
2023-06-22T03:08:12.300Z,23.61
2023-06-22T03:09:12.509Z,23.65
2023-06-22T03:10:12.689Z,23.69
2023-06-22T03:11:12.869Z,23.74
2023-06-22T03:12:13.049Z,23.81
2023-06-22T03:13:13.192Z,23.87
2023-06-22T03:14:13.370Z,23.92
2023-06-22T03:15:13.571Z,23.98
2023-06-22T03:16:13.735Z,24.02
2023-06-22T03:17:13.913Z,24.06
2023-06-22T03:18:14.146Z,24.11
2023-06-22T03:19:14.287Z,24.16
2023-06-22T03:20:14.436Z,24.18
2023-06-22T03:21:14.597Z,24.23
2023-06-22T03:22:14.817Z,24.21
2023-06-22T03:23:14.952Z,24.23
2023-06-22T03:24:15.116Z,24.24
2023-06-22T03:25:15.289Z,24.29
2023-06-22T03:26:15.452Z,24.33
2023-06-22T03:27:15.625Z,24.42
2023-06-22T03:28:15.810Z,24.50
2023-06-22T03:29:15.959Z,24.57
2023-06-22T03:30:16.142Z,24.63
2023-06-22T03:31:16.353Z,24.69
2023-06-22T03:32:16.517Z,24.74
2023-06-22T03:33:16.696Z,24.81
2023-06-22T03:34:16.855Z,24.86
2023-06-22T03:35:17.080Z,24.91
2023-06-22T03:36:17.244Z,24.96
2023-06-22T03:37:17.437Z,24.98
2023-06-22T03:38:17.590Z,25.01
2023-06-22T03:39:17.771Z,25.03
2023-06-22T03:40:17.988Z,25.04
2023-06-22T03:41:18.142Z,25.03
2023-06-22T03:42:18.318Z,25.08
2023-06-22T03:43:18.529Z,25.11
2023-06-22T03:44:18.722Z,25.14
2023-06-22T03:45:18.883Z,25.17
2023-06-22T03:46:19.099Z,25.23
2023-06-22T03:47:19.218Z,25.29
2023-06-22T03:48:19.439Z,25.33
2023-06-22T03:49:19.566Z,25.43
2023-06-22T03:50:19.717Z,25.47
2023-06-22T03:51:19.917Z,25.47
2023-06-22T03:52:20.062Z,25.51
2023-06-22T03:53:20.260Z,25.54
2023-06-22T03:54:20.423Z,25.59
2023-06-22T03:55:20.578Z,25.66
2023-06-22T03:56:20.732Z,25.73
2023-06-22T03:57:20.917Z,25.81
2023-06-22T03:58:21.128Z,25.90
2023-06-22T03:59:21.315Z,25.98
2023-06-22T04:00:21.460Z,26.02
2023-06-22T04:01:21.629Z,26.06
2023-06-22T04:02:21.809Z,26.07
2023-06-22T04:03:22.433Z,26.15
2023-06-22T04:04:22.210Z,26.21
2023-06-22T04:05:22.319Z,26.26
2023-06-22T04:06:22.491Z,26.33
2023-06-22T04:07:22.631Z,26.38
2023-06-22T04:08:22.841Z,26.47
2023-06-22T04:09:23.017Z,26.53
2023-06-22T04:10:23.191Z,26.63
2023-06-22T04:11:23.352Z,26.71
2023-06-22T04:12:23.501Z,26.80
2023-06-22T04:13:23.695Z,26.89
2023-06-22T04:14:23.871Z,26.96
2023-06-22T04:15:24.032Z,27.02
2023-06-22T04:16:24.178Z,27.07
2023-06-22T04:17:24.417Z,27.07
2023-06-22T04:18:24.552Z,27.11
2023-06-22T04:19:24.733Z,27.12
2023-06-22T04:20:25.297Z,27.12
2023-06-22T04:21:25.136Z,27.15
2023-06-22T04:22:25.272Z,27.17
2023-06-22T04:23:25.420Z,27.17
2023-06-22T04:24:25.620Z,27.18
2023-06-22T04:25:25.781Z,27.18
2023-06-22T04:26:25.972Z,27.20
2023-06-22T04:27:26.165Z,27.21
2023-06-22T04:28:28.108Z,27.26
2023-06-22T04:29:26.476Z,27.27
2023-06-22T04:30:26.832Z,27.33
2023-06-22T04:31:26.882Z,27.37
2023-06-22T04:32:27.055Z,27.42
2023-06-22T04:33:27.175Z,27.51
2023-06-22T04:34:27.353Z,27.55
2023-06-22T04:35:27.547Z,27.60
2023-06-22T04:36:27.725Z,27.59
2023-06-22T04:37:27.925Z,27.55
2023-06-22T04:38:28.064Z,27.58
2023-06-22T04:39:28.222Z,27.55
2023-06-22T04:40:28.857Z,27.54
2023-06-22T04:41:28.600Z,27.51
2023-06-22T04:42:28.759Z,27.51
2023-06-22T04:43:28.914Z,27.44
2023-06-22T04:44:29.075Z,27.35
2023-06-22T04:45:29.266Z,27.29
2023-06-22T04:46:29.451Z,27.22
2023-06-22T04:47:29.624Z,27.21
2023-06-22T04:48:29.805Z,27.21
2023-06-22T04:49:29.936Z,27.20
2023-06-22T04:50:30.419Z,27.20
2023-06-22T04:51:30.273Z,27.22
2023-06-22T04:52:30.438Z,27.22
2023-06-22T04:53:30.584Z,27.22
2023-06-22T04:54:30.775Z,27.22
2023-06-22T04:55:30.948Z,27.20
2023-06-22T04:56:31.104Z,27.11
2023-06-22T04:57:31.324Z,27.10
2023-06-22T04:58:31.521Z,27.11
2023-06-22T04:59:31.662Z,27.17
2023-06-22T05:00:31.975Z,27.18
2023-06-22T05:01:31.999Z,27.25
2023-06-22T05:02:32.225Z,27.27
2023-06-22T05:03:32.573Z,27.30
2023-06-22T05:04:32.883Z,27.35
2023-06-22T05:05:32.821Z,27.39
2023-06-22T05:06:32.861Z,27.44
2023-06-22T05:07:33.047Z,27.49
2023-06-22T05:08:33.235Z,27.54
2023-06-22T05:09:33.431Z,27.55
2023-06-22T05:10:33.603Z,27.59
2023-06-22T05:11:33.760Z,27.59
2023-06-22T05:12:33.918Z,27.59
2023-06-22T05:13:34.105Z,27.63
2023-06-22T05:14:34.265Z,27.67
2023-06-22T05:15:34.417Z,27.70
2023-06-22T05:16:34.608Z,27.73
2023-06-22T05:17:34.815Z,27.74
2023-06-22T05:18:35.057Z,27.77
2023-06-22T05:19:35.707Z,27.82
2023-06-22T05:20:35.314Z,27.80
2023-06-22T05:21:35.483Z,27.78
2023-06-22T05:22:35.676Z,27.78
2023-06-22T05:23:35.868Z,27.83
2023-06-22T05:24:35.973Z,27.83
2023-06-22T05:25:36.196Z,27.87
2023-06-22T05:26:36.338Z,27.92
2023-06-22T05:27:36.527Z,28.11
2023-06-22T05:28:36.706Z,28.44
2023-06-22T05:29:36.877Z,28.69
2023-06-22T05:30:37.156Z,28.81
2023-06-22T05:31:37.269Z,28.82
2023-06-22T05:32:37.554Z,28.79
2023-06-22T05:33:37.640Z,28.84
2023-06-22T05:34:37.794Z,28.93
2023-06-22T05:35:37.939Z,28.96
2023-06-22T05:36:38.123Z,29.02
2023-06-22T05:37:38.313Z,29.12
2023-06-22T05:38:38.470Z,29.14
2023-06-22T05:39:38.650Z,29.22
2023-06-22T05:40:38.849Z,29.31
2023-06-22T05:41:39.025Z,29.35
2023-06-22T05:42:39.223Z,29.41
2023-06-22T05:43:39.366Z,29.47
2023-06-22T05:44:39.537Z,29.50
2023-06-22T05:45:39.708Z,29.54
2023-06-22T05:46:39.868Z,29.53
2023-06-22T05:47:40.068Z,29.54
2023-06-22T05:48:40.234Z,29.59
2023-06-22T05:49:40.438Z,29.57
2023-06-22T05:50:40.568Z,29.59
2023-06-22T05:51:40.739Z,29.68
2023-06-22T05:52:40.925Z,29.75
2023-06-22T05:53:41.071Z,29.73
2023-06-22T05:54:41.227Z,29.78
2023-06-22T05:55:41.389Z,29.82
2023-06-22T05:56:41.595Z,29.98
2023-06-22T05:57:41.757Z,30.24
2023-06-22T05:58:41.922Z,30.57
2023-06-22T05:59:42.107Z,30.87
2023-06-22T06:00:42.294Z,31.18
2023-06-22T06:01:42.504Z,31.33
2023-06-22T06:02:42.661Z,31.49
2023-06-22T06:03:42.823Z,31.77
2023-06-22T06:04:42.980Z,32.00
2023-06-22T06:05:43.168Z,32.19
2023-06-22T06:06:43.384Z,32.33
2023-06-22T06:07:43.572Z,32.41
2023-06-22T06:08:43.729Z,32.36
2023-06-22T06:09:43.865Z,32.22
2023-06-22T06:10:44.051Z,32.19
2023-06-22T06:11:44.211Z,32.31
2023-06-22T06:12:44.367Z,32.53
2023-06-22T06:13:44.524Z,32.82
2023-06-22T06:14:44.755Z,33.04
2023-06-22T06:15:44.910Z,33.28
2023-06-22T06:16:45.060Z,33.53
2023-06-22T06:17:45.303Z,33.77
2023-06-22T06:18:45.441Z,34.02
2023-06-22T06:19:45.600Z,34.29
2023-06-22T06:20:45.831Z,34.54
2023-06-22T06:21:45.991Z,34.55
2023-06-22T06:22:46.153Z,34.50
2023-06-22T06:23:46.347Z,34.36
2023-06-22T06:24:47.035Z,34.21
2023-06-22T06:25:46.693Z,34.03
2023-06-22T06:26:46.871Z,33.76
2023-06-22T06:27:47.066Z,33.53
2023-06-22T06:28:47.195Z,33.24
2023-06-22T06:29:47.402Z,33.22
2023-06-22T06:30:47.609Z,33.34
2023-06-22T06:31:47.777Z,33.37
2023-06-22T06:32:47.954Z,33.31
2023-06-22T06:33:48.157Z,33.24
2023-06-22T06:34:48.286Z,33.15
2023-06-22T06:35:48.430Z,33.07
2023-06-22T06:36:48.615Z,32.97
2023-06-22T06:37:48.786Z,32.83
2023-06-22T06:38:48.985Z,32.71
2023-06-22T06:39:49.172Z,32.59
2023-06-22T06:40:49.312Z,32.56
2023-06-22T06:41:49.496Z,32.74
2023-06-22T06:42:49.702Z,32.97
2023-06-22T06:43:49.876Z,33.08
2023-06-22T06:44:50.005Z,33.04
2023-06-22T06:45:52.501Z,32.92
2023-06-22T06:46:50.358Z,32.68
2023-06-22T06:47:50.579Z,32.56
2023-06-22T06:48:50.725Z,32.27
2023-06-22T06:49:50.875Z,32.07
2023-06-22T06:50:51.061Z,32.03
2023-06-22T06:51:51.215Z,32.34
2023-06-22T06:52:51.465Z,32.75
2023-06-22T06:53:51.588Z,33.08
2023-06-22T06:54:51.752Z,33.55
2023-06-22T06:55:51.925Z,33.98
2023-06-22T06:56:52.175Z,34.54
2023-06-22T06:57:52.255Z,34.88
2023-06-22T06:58:52.455Z,34.96
2023-06-22T06:59:52.611Z,34.96
2023-06-22T07:00:52.777Z,34.96
2023-06-22T07:01:53.108Z,35.08
2023-06-22T07:02:53.161Z,35.22
2023-06-22T07:03:53.307Z,35.37
2023-06-22T07:04:53.421Z,35.63
2023-06-22T07:05:53.602Z,36.00
2023-06-22T07:06:53.791Z,36.36
2023-06-22T07:07:53.948Z,36.70
2023-06-22T07:08:54.148Z,36.95
2023-06-22T07:09:54.304Z,36.92
2023-06-22T07:10:54.490Z,36.83
2023-06-22T07:11:54.625Z,36.64
2023-06-22T07:12:54.817Z,36.30
2023-06-22T07:13:54.969Z,36.16
2023-06-22T07:14:55.183Z,36.00
2023-06-22T07:15:55.336Z,35.74
2023-06-22T07:16:55.543Z,35.71
2023-06-22T07:17:55.823Z,35.79
2023-06-22T07:18:55.875Z,35.88
2023-06-22T07:19:56.027Z,35.80
2023-06-22T07:20:56.225Z,35.76
2023-06-22T07:21:56.441Z,35.83
2023-06-22T07:22:56.554Z,35.85
2023-06-22T07:23:56.819Z,35.73
2023-06-22T07:24:56.867Z,35.68
2023-06-22T07:25:57.064Z,35.79
2023-06-22T07:26:57.218Z,35.92
2023-06-22T07:27:57.383Z,36.08
2023-06-22T07:28:57.564Z,36.05
2023-06-22T07:29:57.741Z,36.07
2023-06-22T07:30:57.957Z,35.82
2023-06-22T07:31:58.072Z,35.70
2023-06-22T07:32:58.302Z,35.58
2023-06-22T07:33:58.439Z,35.44
2023-06-22T07:34:58.636Z,35.15
2023-06-22T07:35:58.826Z,34.92
2023-06-22T07:36:59.006Z,34.78
2023-06-22T07:37:59.183Z,34.73
2023-06-22T07:38:59.379Z,34.70
2023-06-22T07:39:59.577Z,34.67
2023-06-22T07:40:59.682Z,34.64
2023-06-22T07:41:59.850Z,34.61
2023-06-22T07:43:00.027Z,34.66
2023-06-22T07:44:00.285Z,34.73
2023-06-22T07:45:00.392Z,34.78
2023-06-22T07:46:00.583Z,34.78
2023-06-22T07:47:00.736Z,34.71
2023-06-22T07:48:00.917Z,34.73
2023-06-22T07:49:01.113Z,34.60
2023-06-22T07:50:01.288Z,34.45
2023-06-22T07:51:01.440Z,34.33
2023-06-22T07:52:01.620Z,34.25
2023-06-22T07:53:01.787Z,34.14
2023-06-22T07:54:01.977Z,34.02
2023-06-22T07:55:02.160Z,34.03
2023-06-22T07:56:02.327Z,34.01
2023-06-22T07:57:02.515Z,33.99
2023-06-22T07:58:02.664Z,33.96
2023-06-22T07:59:02.850Z,33.99
2023-06-22T08:00:03.057Z,33.90
2023-06-22T08:01:03.184Z,33.87
2023-06-22T08:02:03.500Z,33.89
2023-06-22T08:03:03.567Z,33.81
2023-06-22T08:04:03.742Z,33.76
2023-06-22T08:05:19.185Z,33.73
2023-06-22T08:06:05.141Z,33.74
2023-06-22T08:07:04.247Z,33.74
2023-06-22T08:08:04.448Z,33.83
2023-06-22T08:09:04.664Z,33.90
2023-06-22T08:10:04.794Z,33.89
2023-06-22T08:11:05.005Z,33.96
2023-06-22T08:12:05.174Z,34.01
2023-06-22T08:13:05.333Z,34.08
2023-06-22T08:14:05.559Z,34.16
2023-06-22T08:15:05.725Z,34.27
2023-06-22T08:16:05.891Z,34.42
2023-06-22T08:17:06.118Z,34.47
2023-06-22T08:18:06.292Z,34.43
2023-06-22T08:19:06.410Z,34.42
2023-06-22T08:20:06.572Z,34.47
2023-06-22T08:21:06.742Z,34.48
2023-06-22T08:22:06.917Z,34.47
2023-06-22T08:23:07.087Z,34.55
2023-06-22T08:24:07.250Z,34.43
2023-06-22T08:25:07.426Z,34.51
2023-06-22T08:26:07.605Z,34.55
2023-06-22T08:27:07.818Z,34.47
2023-06-22T08:28:07.919Z,34.43
2023-06-22T08:29:08.086Z,34.47
2023-06-22T08:30:08.279Z,34.47
2023-06-22T08:31:08.479Z,34.51
2023-06-22T08:32:08.728Z,34.62
2023-06-22T08:33:08.835Z,34.86
2023-06-22T08:34:08.971Z,35.15
2023-06-22T08:35:09.248Z,35.39
2023-06-22T08:36:09.346Z,35.88
2023-06-22T08:37:09.630Z,36.47
2023-06-22T08:38:09.696Z,37.14
2023-06-22T08:39:09.875Z,37.59
2023-06-22T08:40:10.112Z,37.86
2023-06-22T08:41:10.265Z,38.12
2023-06-22T08:42:10.413Z,38.36
2023-06-22T08:43:10.570Z,38.48
2023-06-22T08:44:10.789Z,38.48
2023-06-22T08:45:10.949Z,38.46
2023-06-22T08:46:11.124Z,38.33
2023-06-22T08:47:11.286Z,38.28
2023-06-22T08:48:11.494Z,38.30
2023-06-22T08:49:11.649Z,38.24
2023-06-22T08:50:11.827Z,38.21
2023-06-22T08:51:11.984Z,38.24
2023-06-22T08:52:12.187Z,38.26
2023-06-22T08:53:12.339Z,38.46
2023-06-22T08:54:12.535Z,38.49
2023-06-22T08:55:12.718Z,38.58
2023-06-22T08:56:12.881Z,38.65
2023-06-22T08:57:13.068Z,38.60
2023-06-22T08:58:13.217Z,38.50
2023-06-22T08:59:13.392Z,38.43
2023-06-22T09:00:13.604Z,38.49
2023-06-22T09:01:13.750Z,38.67
2023-06-22T09:02:13.967Z,38.86
2023-06-22T09:03:14.300Z,38.92
2023-06-22T09:04:14.451Z,38.91
2023-06-22T09:05:14.598Z,38.74
2023-06-22T09:06:14.642Z,38.54
2023-06-22T09:07:14.804Z,38.38
2023-06-22T09:08:14.975Z,38.14
2023-06-22T09:09:15.170Z,37.93
2023-06-22T09:10:15.358Z,37.60
2023-06-22T09:11:16.433Z,37.37
2023-06-22T09:12:15.695Z,37.18
2023-06-22T09:13:15.868Z,37.02
2023-06-22T09:14:16.044Z,36.92
2023-06-22T09:15:18.511Z,36.83
2023-06-22T09:16:16.392Z,36.64
2023-06-22T09:17:16.541Z,36.40
2023-06-22T09:18:16.742Z,36.25
2023-06-22T09:19:16.918Z,36.18
2023-06-22T09:20:17.092Z,36.09
2023-06-22T09:21:17.233Z,36.02
2023-06-22T09:22:17.431Z,36.01
2023-06-22T09:23:17.621Z,35.93
2023-06-22T09:24:17.801Z,35.98
2023-06-22T09:25:18.019Z,35.95
2023-06-22T09:26:18.184Z,35.98
2023-06-22T09:27:18.336Z,35.98
2023-06-22T09:28:18.534Z,36.00
2023-06-22T09:29:18.705Z,36.07
2023-06-22T09:30:18.892Z,36.40
2023-06-22T09:31:19.073Z,36.77
2023-06-22T09:32:19.281Z,36.93
2023-06-22T09:33:19.441Z,37.10
2023-06-22T09:34:19.586Z,37.29
2023-06-22T09:35:19.741Z,37.45
2023-06-22T09:36:19.924Z,37.60
2023-06-22T09:37:20.108Z,37.71
2023-06-22T09:38:20.287Z,37.86
2023-06-22T09:39:20.451Z,37.99
2023-06-22T09:40:20.606Z,38.05
2023-06-22T09:41:20.847Z,38.14
2023-06-22T09:42:20.976Z,38.15
2023-06-22T09:43:21.140Z,38.11
2023-06-22T09:44:21.329Z,38.01
2023-06-22T09:45:21.491Z,37.83
2023-06-22T09:46:21.693Z,37.40
2023-06-22T09:47:21.898Z,36.89
2023-06-22T09:48:22.042Z,36.79
2023-06-22T09:49:37.559Z,36.77
2023-06-22T09:50:23.407Z,36.86
2023-06-22T09:51:22.613Z,36.93
2023-06-22T09:52:26.072Z,36.95
2023-06-22T09:53:23.886Z,36.92
2023-06-22T09:54:23.049Z,37.07
2023-06-22T09:55:23.227Z,37.21
2023-06-22T09:56:23.429Z,37.51
2023-06-22T09:57:23.594Z,37.77
2023-06-22T09:58:23.767Z,38.11
2023-06-22T09:59:23.930Z,38.57
2023-06-22T10:00:24.108Z,39.06
2023-06-22T10:01:24.264Z,39.36
2023-06-22T10:02:24.633Z,39.80
2023-06-22T10:03:24.822Z,40.47
2023-06-22T10:04:24.882Z,41.12
2023-06-22T10:05:25.078Z,41.56
2023-06-22T10:06:25.194Z,41.91
2023-06-22T10:07:25.331Z,42.06
2023-06-22T10:08:25.492Z,42.20
2023-06-22T10:09:25.665Z,42.57
2023-06-22T10:10:25.855Z,43.03
2023-06-22T10:11:26.046Z,43.31
2023-06-22T10:12:26.192Z,43.43
2023-06-22T10:13:26.348Z,43.57
2023-06-22T10:14:26.536Z,43.68
2023-06-22T10:15:26.837Z,43.87
2023-06-22T10:16:26.902Z,43.87
2023-06-22T10:17:27.133Z,43.91
2023-06-22T10:18:27.261Z,43.43
2023-06-22T10:19:27.421Z,42.97
2023-06-22T10:20:27.613Z,42.54
2023-06-22T10:21:27.788Z,42.19
2023-06-22T10:22:27.977Z,41.91
2023-06-22T10:23:28.120Z,41.71
2023-06-22T10:24:28.324Z,41.52
2023-06-22T10:25:28.833Z,41.22
2023-06-22T10:26:28.685Z,40.84
2023-06-22T10:27:28.845Z,40.41
2023-06-22T10:28:31.402Z,40.04
2023-06-22T10:29:29.169Z,39.74
2023-06-22T10:30:29.348Z,39.38
2023-06-22T10:31:29.592Z,38.92
2023-06-22T10:32:29.778Z,38.68
2023-06-22T10:33:29.898Z,38.39
2023-06-22T10:34:30.050Z,38.08
2023-06-22T10:35:30.603Z,37.84
2023-06-22T10:36:30.417Z,37.60
2023-06-22T10:37:30.583Z,37.39
2023-06-22T10:38:30.747Z,37.18
2023-06-22T10:39:30.902Z,37.02
2023-06-22T10:40:31.103Z,36.74
2023-06-22T10:41:31.300Z,36.39
2023-06-22T10:42:31.451Z,36.18
2023-06-22T10:43:31.633Z,36.02
2023-06-22T10:44:31.782Z,35.93
2023-06-22T10:45:32.152Z,35.70
2023-06-22T10:46:32.246Z,35.58
2023-06-22T10:47:32.354Z,35.48
2023-06-22T10:48:32.484Z,35.37
2023-06-22T10:49:32.647Z,35.34
2023-06-22T10:50:32.874Z,35.41
2023-06-22T10:51:33.013Z,35.34
2023-06-22T10:52:33.180Z,35.29
2023-06-22T10:53:33.369Z,35.29
2023-06-22T10:54:33.547Z,35.34
2023-06-22T10:55:47.480Z,35.26
2023-06-22T10:56:34.896Z,35.18
2023-06-22T10:57:34.063Z,35.18
2023-06-22T10:58:34.213Z,35.23
2023-06-22T10:59:34.376Z,35.22
2023-06-22T11:00:34.584Z,35.15
2023-06-22T11:01:36.911Z,35.19
2023-06-22T11:02:35.031Z,35.19
2023-06-22T11:03:35.174Z,35.17
2023-06-22T11:04:35.353Z,35.07
2023-06-22T11:05:35.409Z,35.10
2023-06-22T11:06:35.611Z,35.11
2023-06-22T11:07:35.788Z,35.15
2023-06-22T11:08:35.946Z,35.14
2023-06-22T11:09:36.118Z,35.04
2023-06-22T11:10:36.304Z,34.89
2023-06-22T11:11:36.486Z,34.86
2023-06-22T11:12:36.660Z,34.75
2023-06-22T11:13:36.818Z,34.62
2023-06-22T11:14:37.020Z,34.54
2023-06-22T11:15:38.146Z,34.42
2023-06-22T11:16:37.378Z,34.40
2023-06-22T11:17:37.605Z,34.24
2023-06-22T11:18:37.690Z,34.16
2023-06-22T11:19:37.874Z,34.03
2023-06-22T11:20:38.070Z,33.94
2023-06-22T11:21:38.221Z,33.89
2023-06-22T11:22:38.417Z,33.90
2023-06-22T11:23:38.573Z,33.92
2023-06-22T11:24:38.766Z,33.94
2023-06-22T11:25:38.952Z,33.94
2023-06-22T11:26:39.158Z,33.89
2023-06-22T11:27:39.265Z,33.81
2023-06-22T11:28:39.443Z,33.83
2023-06-22T11:29:39.646Z,33.87
2023-06-22T11:30:39.806Z,33.94
2023-06-22T11:31:39.994Z,33.94
2023-06-22T11:32:40.280Z,33.94
2023-06-22T11:33:40.320Z,33.94
2023-06-22T11:34:40.498Z,33.90
2023-06-22T11:35:40.665Z,33.81
2023-06-22T11:36:40.850Z,33.74
2023-06-22T11:37:41.010Z,33.80
2023-06-22T11:38:41.189Z,33.86
2023-06-22T11:39:43.288Z,33.92
2023-06-22T11:40:42.545Z,33.99
2023-06-22T11:41:41.768Z,33.96
2023-06-22T11:42:41.874Z,33.98
2023-06-22T11:43:42.054Z,33.94
2023-06-22T11:44:42.243Z,33.87
2023-06-22T11:45:42.376Z,33.87
2023-06-22T11:46:42.560Z,33.81
2023-06-22T11:47:42.842Z,33.81
2023-06-22T11:48:42.935Z,33.81
2023-06-22T11:49:43.093Z,33.83
2023-06-22T11:50:43.282Z,33.90
2023-06-22T11:51:43.455Z,33.94
2023-06-22T11:52:43.683Z,33.96
2023-06-22T11:53:43.859Z,33.96
2023-06-22T11:54:43.996Z,34.03
2023-06-22T11:55:44.206Z,34.10
2023-06-22T11:56:44.363Z,34.10
2023-06-22T11:57:44.535Z,34.14
2023-06-22T11:58:44.724Z,34.14
2023-06-22T11:59:44.876Z,34.13
2023-06-22T12:00:51.417Z,34.03
2023-06-22T12:01:46.240Z,34.01
2023-06-22T12:02:45.503Z,33.94
2023-06-22T12:03:45.640Z,33.90
2023-06-22T12:04:45.742Z,33.92
2023-06-22T12:05:45.987Z,33.87
2023-06-22T12:06:46.379Z,33.87
2023-06-22T12:07:46.329Z,33.83
2023-06-22T12:08:46.689Z,33.80
2023-06-22T12:09:46.658Z,33.79
2023-06-22T12:10:46.837Z,33.69
2023-06-22T12:11:46.980Z,33.57
2023-06-22T12:12:47.218Z,33.47
2023-06-22T12:13:47.296Z,33.39
2023-06-22T12:14:47.489Z,33.42
2023-06-22T12:15:47.741Z,33.42
2023-06-22T12:16:47.836Z,33.37
2023-06-22T12:17:48.048Z,33.36
2023-06-22T12:18:48.182Z,33.39
2023-06-22T12:19:48.374Z,33.39
2023-06-22T12:20:48.566Z,33.46
2023-06-22T12:21:48.746Z,33.52
2023-06-22T12:22:48.914Z,33.61
2023-06-22T12:23:49.060Z,33.67
2023-06-22T12:24:49.272Z,33.76
2023-06-22T12:25:49.433Z,33.81
2023-06-22T12:26:49.634Z,33.84
2023-06-22T12:27:49.805Z,33.87
2023-06-22T12:28:49.966Z,33.89
2023-06-22T12:29:50.121Z,33.96
2023-06-22T12:30:50.379Z,34.03
2023-06-22T12:31:50.542Z,34.06
2023-06-22T12:32:50.680Z,34.06
2023-06-22T12:33:50.804Z,34.02
2023-06-22T12:34:50.954Z,34.01
2023-06-22T12:35:51.118Z,33.94
2023-06-22T12:36:51.311Z,33.95
2023-06-22T12:37:51.497Z,33.95
2023-06-22T12:38:52.045Z,33.90
2023-06-22T12:39:51.797Z,34.05
2023-06-22T12:40:51.986Z,34.14
2023-06-22T12:41:52.176Z,34.20
2023-06-22T12:42:52.341Z,34.16
2023-06-22T12:43:52.498Z,34.14
2023-06-22T12:44:54.094Z,34.21
2023-06-22T12:45:52.855Z,34.25
2023-06-22T12:46:53.037Z,34.23
2023-06-22T12:47:53.223Z,34.13
2023-06-22T12:48:53.388Z,34.05
2023-06-22T12:49:53.561Z,34.05
2023-06-22T12:50:54.700Z,33.99
2023-06-22T12:51:53.948Z,33.98
2023-06-22T12:52:54.134Z,33.92
2023-06-22T12:53:54.297Z,33.92
2023-06-22T12:54:56.027Z,33.90